createdAt,value
2022-12-18T00:00:25.758Z,101924.08
2022-12-18T00:03:16.604Z,101918.27
2022-12-18T00:05:53.467Z,101923.23
2022-12-18T00:08:22.152Z,101936.75
2022-12-18T00:10:50.822Z,101942.56
2022-12-18T00:13:19.894Z,101943.63
2022-12-18T00:15:48.707Z,101944.09
2022-12-18T00:18:20.583Z,101958.16
2022-12-18T00:20:49.734Z,101962.27
2022-12-18T00:23:18.592Z,101977.67
2022-12-18T00:25:47.303Z,101979.69
2022-12-18T00:28:15.992Z,101991.21
2022-12-18T00:30:44.785Z,101989.55
2022-12-18T00:33:13.465Z,101992.00
2022-12-18T00:35:42.084Z,101994.47
2022-12-18T00:38:12.261Z,101996.46
2022-12-18T00:40:41.015Z,101988.89
2022-12-18T00:43:13.067Z,102000.01
2022-12-18T00:45:42.408Z,101998.47
2022-12-18T00:48:11.399Z,102005.08
2022-12-18T00:50:40.074Z,102012.73
2022-12-18T00:53:12.854Z,102012.30
2022-12-18T00:55:47.054Z,102003.53
2022-12-18T00:58:18.234Z,102009.19
2022-12-18T01:00:47.230Z,102006.92
2022-12-18T01:03:16.272Z,102008.77
2022-12-18T01:05:45.974Z,102012.16
2022-12-18T01:08:14.559Z,102011.48
2022-12-18T01:10:45.079Z,102022.60
2022-12-18T01:13:13.850Z,102017.61
2022-12-18T01:15:50.874Z,102020.90
2022-12-18T01:18:19.555Z,102021.92
2022-12-18T01:20:48.304Z,102019.08
2022-12-18T01:23:17.180Z,102023.23
2022-12-18T01:25:45.954Z,102025.11
2022-12-18T01:28:14.709Z,102027.22
2022-12-18T01:30:43.431Z,102031.16
2022-12-18T01:33:12.186Z,102030.89
2022-12-18T01:35:44.714Z,102035.48
2022-12-18T01:38:13.158Z,102034.27
2022-12-18T01:40:42.603Z,102036.08
2022-12-18T01:43:12.307Z,102034.19
2022-12-18T01:45:41.223Z,102034.30
2022-12-18T01:48:10.814Z,102039.17
2022-12-18T01:50:44.305Z,102041.52
2022-12-18T01:53:18.005Z,102041.45
2022-12-18T01:55:56.451Z,102042.90
2022-12-18T01:58:37.029Z,102049.84
2022-12-18T02:01:05.868Z,102051.40
2022-12-18T02:03:35.262Z,102059.40
2022-12-18T02:06:30.915Z,102052.98
2022-12-18T02:09:28.455Z,102058.22
2022-12-18T02:12:26.667Z,102068.94
2022-12-18T02:15:43.416Z,102060.13
2022-12-18T02:18:42.073Z,102063.48
2022-12-18T02:21:50.931Z,102068.95
2022-12-18T02:24:33.469Z,102082.21
2022-12-18T02:27:07.871Z,102078.02
2022-12-18T02:30:02.484Z,102080.95
2022-12-18T02:32:38.415Z,102083.81
2022-12-18T02:35:12.214Z,102090.65
2022-12-18T02:37:45.461Z,102099.10
2022-12-18T02:40:15.531Z,102103.75
2022-12-18T02:42:44.398Z,102101.86
2022-12-18T02:45:13.463Z,102101.89
2022-12-18T02:47:48.688Z,102106.99
2022-12-18T02:50:39.412Z,102115.77
2022-12-18T02:54:01.296Z,102116.45
2022-12-18T02:56:39.752Z,102114.89
2022-12-18T02:59:24.567Z,102120.34
2022-12-18T03:02:12.662Z,102125.98
2022-12-18T03:04:57.492Z,102126.98
2022-12-18T03:07:42.890Z,102135.13
2022-12-18T03:10:18.341Z,102139.29
2022-12-18T03:13:00.173Z,102144.95
2022-12-18T03:15:53.054Z,102152.60
2022-12-18T03:18:38.094Z,102152.75
2022-12-18T03:21:09.380Z,102148.79
2022-12-18T03:23:51.562Z,102155.22
2022-12-18T03:26:26.687Z,102161.75
2022-12-18T03:29:05.934Z,102168.61
2022-12-18T03:31:34.950Z,102174.13
2022-12-18T03:34:12.653Z,102173.23
2022-12-18T03:36:45.020Z,102176.34
2022-12-18T03:39:15.011Z,102181.96
2022-12-18T03:42:03.568Z,102184.48
2022-12-18T03:45:15.685Z,102193.17
2022-12-18T03:48:07.497Z,102197.55
2022-12-18T03:51:06.896Z,102204.91
2022-12-18T03:53:47.302Z,102205.46
2022-12-18T03:56:18.476Z,102212.52
2022-12-18T03:58:49.210Z,102224.04
2022-12-18T04:01:35.707Z,102229.77
2022-12-18T04:04:07.435Z,102230.90
2022-12-18T04:06:40.075Z,102236.13
2022-12-18T04:09:09.626Z,102242.04
2022-12-18T04:11:45.312Z,102249.49
2022-12-18T04:14:18.231Z,102251.45
2022-12-18T04:16:48.227Z,102256.73
2022-12-18T04:19:18.204Z,102267.02
2022-12-18T04:21:49.311Z,102267.89
2022-12-18T04:24:18.326Z,102272.03
2022-12-18T04:26:57.250Z,102272.23
2022-12-18T04:29:30.227Z,102272.23
2022-12-18T04:31:59.213Z,102271.99
2022-12-18T04:34:28.610Z,102287.40
2022-12-18T04:36:57.544Z,102295.27
2022-12-18T04:39:27.592Z,102294.89
2022-12-18T04:42:04.520Z,102293.80
2022-12-18T04:44:33.244Z,102292.95
2022-12-18T04:47:02.233Z,102288.83
2022-12-18T04:49:30.884Z,102294.27
2022-12-18T04:51:59.732Z,102303.26
2022-12-18T04:54:28.600Z,102310.56
2022-12-18T04:57:02.668Z,102315.18
2022-12-18T04:59:32.990Z,102313.45
2022-12-18T05:02:02.000Z,102322.36
2022-12-18T05:04:31.219Z,102331.33
2022-12-18T05:07:00.238Z,102335.54
2022-12-18T05:09:29.095Z,102343.31
2022-12-18T05:12:14.917Z,102350.80
2022-12-18T05:14:48.802Z,102355.14
2022-12-18T05:17:18.784Z,102361.75
2022-12-18T05:19:48.417Z,102364.69
2022-12-18T05:22:20.468Z,102368.27
2022-12-18T05:24:50.108Z,102377.04
2022-12-18T05:27:21.865Z,102380.36
2022-12-18T05:29:51.756Z,102381.52
2022-12-18T05:32:20.813Z,102390.39
2022-12-18T05:34:50.790Z,102395.06
2022-12-18T05:37:19.865Z,102399.37
2022-12-18T05:39:49.877Z,102403.08
2022-12-18T05:42:19.406Z,102411.17
2022-12-18T05:44:48.610Z,102418.83
2022-12-18T05:47:17.908Z,102419.13
2022-12-18T05:49:46.747Z,102434.97
2022-12-18T05:52:15.918Z,102429.02
2022-12-18T05:54:46.691Z,102433.64
2022-12-18T05:57:15.619Z,102436.60
2022-12-18T05:59:44.805Z,102434.44
2022-12-18T06:02:13.763Z,102441.58
2022-12-18T06:04:42.672Z,102453.11
2022-12-18T06:07:15.083Z,102457.88
2022-12-18T06:09:44.799Z,102472.16
2022-12-18T06:12:13.504Z,102467.66
2022-12-18T06:14:42.662Z,102469.94
2022-12-18T06:17:12.085Z,102477.90
2022-12-18T06:19:40.985Z,102479.30
2022-12-18T06:22:09.783Z,102487.46
2022-12-18T06:24:38.525Z,102491.20
2022-12-18T06:27:07.328Z,102495.00
2022-12-18T06:29:35.847Z,102491.38
2022-12-18T06:32:04.794Z,102499.61
2022-12-18T06:34:34.772Z,102498.91
2022-12-18T06:37:03.777Z,102503.84
2022-12-18T06:39:33.658Z,102513.45
2022-12-18T06:42:06.345Z,102512.92
2022-12-18T06:44:34.980Z,102521.05
2022-12-18T06:47:03.934Z,102519.63
2022-12-18T06:49:34.242Z,102529.14
2022-12-18T06:52:03.627Z,102532.27
2022-12-18T06:54:32.822Z,102541.95
2022-12-18T06:57:02.129Z,102545.27
2022-12-18T06:59:31.315Z,102550.10
2022-12-18T07:02:00.234Z,102552.93
2022-12-18T07:04:34.415Z,102561.39
2022-12-18T07:07:03.431Z,102567.19
2022-12-18T07:09:32.195Z,102570.94
2022-12-18T07:12:01.099Z,102564.23
2022-12-18T07:14:29.733Z,102568.46
2022-12-18T07:16:58.685Z,102576.05
2022-12-18T07:19:27.746Z,102579.05
2022-12-18T07:21:56.473Z,102590.28
2022-12-18T07:24:25.217Z,102586.90
2022-12-18T07:26:53.918Z,102594.50
2022-12-18T07:29:22.817Z,102590.77
2022-12-18T07:31:51.474Z,102581.61
2022-12-18T07:34:20.413Z,102586.94
2022-12-18T07:36:49.574Z,102595.98
2022-12-18T07:39:18.144Z,102593.66
2022-12-18T07:43:06.237Z,102605.56
2022-12-18T07:45:51.834Z,102605.88
2022-12-18T07:48:20.387Z,102601.86
2022-12-18T07:50:49.287Z,102605.21
2022-12-18T07:53:18.015Z,102610.65
2022-12-18T07:56:25.089Z,102618.12
2022-12-18T07:58:41.729Z,102618.30
2022-12-18T08:01:26.280Z,102621.52
2022-12-18T08:04:09.040Z,102631.98
2022-12-18T08:08:45.551Z,102636.44
2022-12-18T08:14:54.264Z,102647.70
2022-12-18T08:17:40.274Z,102654.87
2022-12-18T08:20:22.305Z,102649.60
2022-12-18T08:23:28.616Z,102659.42
2022-12-18T08:26:51.834Z,102659.85
2022-12-18T08:29:50.301Z,102666.29
2022-12-18T08:32:19.384Z,102659.49
2022-12-18T08:34:48.055Z,102665.11
2022-12-18T08:37:17.050Z,102664.65
2022-12-18T08:39:46.668Z,102674.23
2022-12-18T08:42:34.380Z,102669.06
2022-12-18T08:45:04.901Z,102669.96
2022-12-18T08:47:33.885Z,102663.27
2022-12-18T08:50:03.062Z,102666.84
2022-12-18T08:52:33.941Z,102665.34
2022-12-18T08:55:02.573Z,102674.66
2022-12-18T09:00:41.336Z,102684.30
2022-12-18T09:03:19.091Z,102680.74
2022-12-18T09:05:48.177Z,102688.08
2022-12-18T09:08:16.876Z,102698.63
2022-12-18T09:10:47.217Z,102687.92
2022-12-18T09:13:17.481Z,102704.53
2022-12-18T09:15:52.395Z,102699.98
2022-12-18T09:18:23.586Z,102703.48
2022-12-18T09:20:54.127Z,102694.76
2022-12-18T09:23:23.268Z,102700.70
2022-12-18T09:25:51.741Z,102705.19
2022-12-18T09:28:20.530Z,102688.91
2022-12-18T09:30:50.758Z,102693.24
2022-12-18T09:33:19.641Z,102701.61
2022-12-18T09:35:48.493Z,102701.02
2022-12-18T09:38:20.797Z,102722.09
2022-12-18T09:40:57.283Z,102719.65
2022-12-18T09:43:44.623Z,102719.16
2022-12-18T09:46:27.298Z,102728.27
2022-12-18T09:49:02.341Z,102754.64
2022-12-18T09:51:44.818Z,102744.06
2022-12-18T09:54:25.208Z,102737.95
2022-12-18T09:56:55.359Z,102750.21
2022-12-18T09:59:36.878Z,102749.96
2022-12-18T10:02:23.340Z,102755.70
2022-12-18T10:05:15.453Z,102752.55
2022-12-18T10:08:02.281Z,102749.10
2022-12-18T10:10:34.191Z,102749.27
2022-12-18T10:13:37.336Z,102759.30
2022-12-18T10:16:57.802Z,102760.70
2022-12-18T10:19:29.064Z,102760.78
2022-12-18T10:22:24.990Z,102769.65
2022-12-18T10:25:03.531Z,102779.57
2022-12-18T10:27:33.088Z,102775.20
2022-12-18T10:30:14.212Z,102782.54
2022-12-18T10:32:43.652Z,102778.55
2022-12-18T10:35:29.961Z,102782.88
2022-12-18T10:38:01.720Z,102792.04
2022-12-18T10:40:31.024Z,102790.17
2022-12-18T10:43:12.711Z,102798.09
2022-12-18T10:45:43.306Z,102806.73
2022-12-18T10:48:23.780Z,102821.48
2022-12-18T10:51:12.240Z,102816.21
2022-12-18T10:53:44.524Z,102827.30
2022-12-18T10:56:13.521Z,102811.56
2022-12-18T10:58:42.563Z,102810.49
2022-12-18T11:01:21.336Z,102809.35
2022-12-18T11:04:01.833Z,102813.77
2022-12-18T11:06:31.291Z,102822.55
2022-12-18T11:09:23.284Z,102816.41
2022-12-18T11:11:55.055Z,102846.23
2022-12-18T11:14:32.012Z,102835.84
2022-12-18T11:17:31.709Z,102829.59
2022-12-18T11:20:04.468Z,102835.07
2022-12-18T11:22:36.535Z,102840.59
2022-12-18T11:25:34.499Z,102849.23
2022-12-18T11:28:23.693Z,102845.79
2022-12-18T11:31:19.047Z,102838.46
2022-12-18T11:34:30.266Z,102832.02
2022-12-18T11:37:02.303Z,102837.16
2022-12-18T11:39:58.110Z,102840.22
2022-12-18T11:42:46.404Z,102847.02
2022-12-18T11:45:15.162Z,102839.73
2022-12-18T11:47:51.274Z,102837.45
2022-12-18T11:50:44.834Z,102842.41
2022-12-18T11:53:13.945Z,102849.41
2022-12-18T11:56:07.959Z,102852.52
2022-12-18T11:59:22.821Z,102854.81
2022-12-18T12:01:56.719Z,102849.27
2022-12-18T12:04:50.368Z,102849.60
2022-12-18T12:08:04.127Z,102857.86
2022-12-18T12:11:04.114Z,102859.77
2022-12-18T12:13:45.163Z,102860.67
2022-12-18T12:16:28.086Z,102863.60
2022-12-18T12:19:09.033Z,102860.54
2022-12-18T12:22:05.199Z,102873.00
2022-12-18T12:24:54.856Z,102886.83
2022-12-18T12:27:35.453Z,102875.80
2022-12-18T12:30:10.550Z,102883.98
2022-12-18T12:32:57.574Z,102886.01
2022-12-18T12:35:37.265Z,102897.57
2022-12-18T12:38:37.353Z,102894.52
2022-12-18T12:41:31.034Z,102891.35
2022-12-18T12:44:04.799Z,102898.26
2022-12-18T12:46:40.728Z,102907.73
2022-12-18T12:49:41.046Z,102904.11
2022-12-18T12:52:18.034Z,102904.88
2022-12-18T12:54:48.711Z,102905.05
2022-12-18T12:58:18.008Z,102914.26
2022-12-18T13:01:23.433Z,102918.50
2022-12-18T13:04:02.419Z,102923.74
2022-12-18T13:07:05.025Z,102921.14
2022-12-18T13:09:36.779Z,102930.76
2022-12-18T13:12:33.450Z,102933.83
2022-12-18T13:15:22.930Z,102936.98
2022-12-18T13:18:11.440Z,102940.89
2022-12-18T13:21:10.090Z,102950.23
2022-12-18T13:23:42.882Z,102944.52
2022-12-18T13:26:19.896Z,102940.45
2022-12-18T13:28:56.389Z,102953.47
2022-12-18T13:31:30.958Z,102943.39
2022-12-18T13:34:28.326Z,102957.77
2022-12-18T13:37:34.282Z,102972.13
2022-12-18T13:40:03.407Z,102959.34
2022-12-18T13:43:00.535Z,102962.61
2022-12-18T13:46:01.104Z,102968.52
2022-12-18T13:48:37.337Z,102968.77
2022-12-18T13:51:12.596Z,102981.98
2022-12-18T13:53:53.215Z,102988.08
2022-12-18T13:56:29.958Z,102990.91
2022-12-18T13:59:38.423Z,102986.99
2022-12-18T14:02:16.950Z,102993.71
2022-12-18T14:04:48.400Z,102989.85
2022-12-18T14:07:24.254Z,102991.34
2022-12-18T14:10:12.181Z,102990.74
2022-12-18T14:12:57.691Z,103000.09
2022-12-18T14:15:45.549Z,102991.39
2022-12-18T14:18:47.624Z,102993.86
2022-12-18T14:21:33.889Z,102996.70
2022-12-18T14:24:10.316Z,103002.91
2022-12-18T14:26:39.168Z,103003.98
2022-12-18T14:29:30.752Z,103011.88
2022-12-18T14:32:19.676Z,103019.61
2022-12-18T14:34:51.804Z,103023.68
2022-12-18T14:37:28.465Z,103022.22
2022-12-18T14:40:10.862Z,103027.80
2022-12-18T14:42:39.688Z,103030.84
2022-12-18T14:45:41.028Z,103033.69
2022-12-18T14:48:42.428Z,103039.85
2022-12-18T14:51:14.049Z,103050.27
2022-12-18T14:53:57.155Z,103049.87
2022-12-18T14:56:30.219Z,103044.87
2022-12-18T14:59:27.287Z,103050.51
2022-12-18T15:02:09.857Z,103058.01
2022-12-18T15:04:44.910Z,103060.98
2022-12-18T15:07:23.881Z,103061.31
2022-12-18T15:10:09.401Z,103071.48
2022-12-18T15:12:45.663Z,103070.31
2022-12-18T15:15:56.458Z,103076.39
2022-12-18T15:18:34.247Z,103082.30
2022-12-18T15:21:35.887Z,103086.05
2022-12-18T15:24:04.961Z,103096.08
2022-12-18T15:26:39.501Z,103099.79
2022-12-18T15:29:22.901Z,103093.50
2022-12-18T15:32:21.182Z,103093.65
2022-12-18T15:34:49.714Z,103097.10
2022-12-18T15:37:18.545Z,103093.63
2022-12-18T15:39:47.201Z,103092.74
2022-12-18T15:42:34.313Z,103098.20
2022-12-18T15:45:02.884Z,103092.69
2022-12-18T15:47:31.333Z,103091.06
2022-12-18T15:49:59.961Z,103092.27
2022-12-18T15:52:28.658Z,103111.95
2022-12-18T15:55:16.813Z,103110.63
2022-12-18T15:57:45.422Z,103114.06
2022-12-18T16:00:15.148Z,103108.34
2022-12-18T16:02:43.890Z,103118.73
2022-12-18T16:05:18.930Z,103126.09
2022-12-18T16:07:48.174Z,103127.20
2022-12-18T16:10:21.582Z,103135.08
2022-12-18T16:13:23.139Z,103136.02
2022-12-18T16:15:51.787Z,103149.27
2022-12-18T16:19:03.018Z,103156.27
2022-12-18T16:21:51.518Z,103167.35
2022-12-18T16:24:34.266Z,103175.65
2022-12-18T16:27:27.978Z,103186.96
2022-12-18T16:29:56.506Z,103182.20
2022-12-18T16:32:25.383Z,103188.08
2022-12-18T16:34:54.467Z,103192.16
2022-12-18T16:37:51.823Z,103193.02
2022-12-18T16:40:22.289Z,103192.52
2022-12-18T16:43:18.277Z,103197.17
2022-12-18T16:46:20.914Z,103191.98
2022-12-18T16:48:50.293Z,103197.70
2022-12-18T16:51:21.032Z,103200.89
2022-12-18T16:53:51.750Z,103198.21
2022-12-18T16:56:21.892Z,103203.38
2022-12-18T16:59:05.238Z,103207.73
2022-12-18T17:01:35.277Z,103216.84
2022-12-18T17:04:07.096Z,103222.11
2022-12-18T17:06:44.453Z,103218.83
2022-12-18T17:09:16.762Z,103227.61
2022-12-18T17:11:46.165Z,103235.23
2022-12-18T17:14:21.508Z,103239.05
2022-12-18T17:16:57.911Z,103235.63
2022-12-18T17:19:41.515Z,103237.55
2022-12-18T17:22:10.475Z,103244.14
2022-12-18T17:24:39.468Z,103248.17
2022-12-18T17:27:09.952Z,103254.95
2022-12-18T17:29:47.353Z,103250.23
2022-12-18T17:32:18.473Z,103243.70
2022-12-18T17:34:51.149Z,103252.17
2022-12-18T17:37:22.238Z,103255.07
2022-12-18T17:39:53.876Z,103253.13
2022-12-18T17:42:22.969Z,103247.54
2022-12-18T17:44:56.123Z,103247.23
2022-12-18T17:47:27.078Z,103244.87
2022-12-18T17:49:58.509Z,103249.69
2022-12-18T17:52:30.051Z,103249.77
2022-12-18T17:55:00.825Z,103261.16
2022-12-18T17:57:31.091Z,103257.88
2022-12-18T18:00:00.468Z,103260.64
2022-12-18T18:02:30.231Z,103259.30
2022-12-18T18:05:01.543Z,103259.68
2022-12-18T18:07:32.186Z,103260.52
2022-12-18T18:10:03.291Z,103272.23
2022-12-18T18:12:52.703Z,103274.26
2022-12-18T18:15:24.933Z,103273.77
2022-12-18T18:17:54.155Z,103276.70
2022-12-18T18:20:23.079Z,103280.77
2022-12-18T18:22:52.884Z,103283.97
2022-12-18T18:25:22.326Z,103281.45
2022-12-18T18:27:51.656Z,103288.11
2022-12-18T18:30:21.758Z,103296.29
2022-12-18T18:32:50.877Z,103296.85
2022-12-18T18:35:52.407Z,103302.25
2022-12-18T18:38:48.249Z,103297.80
2022-12-18T18:41:19.469Z,103309.00
2022-12-18T18:43:49.536Z,103310.55
2022-12-18T18:46:23.672Z,103310.52
2022-12-18T18:48:54.491Z,103318.20
2022-12-18T18:51:24.092Z,103313.14
2022-12-18T18:53:53.663Z,103320.93
2022-12-18T18:59:13.662Z,103334.90
2022-12-18T19:01:42.497Z,103333.54
2022-12-18T19:04:11.387Z,103332.21
2022-12-18T19:06:40.439Z,103330.94
2022-12-18T19:09:09.913Z,103333.52
2022-12-18T19:11:58.537Z,103335.44
2022-12-18T19:14:27.195Z,103333.27
2022-12-18T19:16:56.216Z,103338.67
2022-12-18T19:19:25.939Z,103340.66
2022-12-18T19:21:54.860Z,103346.04
2022-12-18T19:24:23.652Z,103344.88
2022-12-18T19:26:52.437Z,103345.69
2022-12-18T19:29:25.280Z,103354.79
2022-12-18T19:31:53.875Z,103359.47
2022-12-18T19:34:22.793Z,103358.36
2022-12-18T19:36:56.474Z,103363.91
2022-12-18T19:39:28.429Z,103363.77
2022-12-18T19:41:57.271Z,103372.14
2022-12-18T19:44:25.892Z,103373.85
2022-12-18T19:46:54.375Z,103372.96
2022-12-18T19:49:23.026Z,103368.83
2022-12-18T19:51:52.438Z,103378.00
2022-12-18T19:54:21.273Z,103383.33
2022-12-18T19:56:50.265Z,103385.36
2022-12-18T19:59:18.855Z,103389.00
2022-12-18T20:01:47.743Z,103393.50
2022-12-18T20:04:16.731Z,103401.59
2022-12-18T20:06:53.819Z,103406.75
2022-12-18T20:09:22.575Z,103402.83
2022-12-18T20:11:51.444Z,103411.27
2022-12-18T20:14:22.981Z,103410.45
2022-12-18T20:16:53.333Z,103419.98
2022-12-18T20:19:22.795Z,103420.95
2022-12-18T20:25:25.041Z,103425.69
2022-12-18T20:27:53.785Z,103433.27
2022-12-18T20:30:22.391Z,103440.47
2022-12-18T20:32:51.051Z,103438.92
2022-12-18T20:35:19.964Z,103445.72
2022-12-18T20:37:50.884Z,103445.52
2022-12-18T20:40:20.654Z,103438.84
2022-12-18T20:42:49.325Z,103432.98
2022-12-18T20:45:21.258Z,103444.27
2022-12-18T20:47:49.931Z,103446.75
2022-12-18T20:50:18.899Z,103450.37
2022-12-18T20:52:48.916Z,103447.04
2022-12-18T20:55:17.605Z,103453.33
2022-12-18T20:57:46.151Z,103456.48
2022-12-18T21:00:16.651Z,103454.98
2022-12-18T21:02:50.027Z,103454.84
2022-12-18T21:05:19.012Z,103443.21
2022-12-18T21:07:47.678Z,103449.66
2022-12-18T21:10:16.245Z,103459.90
2022-12-18T21:12:53.029Z,103465.52
2022-12-18T21:15:29.846Z,103453.19
2022-12-18T21:17:59.115Z,103451.04
2022-12-18T21:20:27.882Z,103451.46
2022-12-18T21:22:57.353Z,103456.71
2022-12-18T21:25:31.593Z,103455.52
2022-12-18T21:28:03.468Z,103457.38
2022-12-18T21:30:32.123Z,103469.60
2022-12-18T21:33:00.808Z,103468.23
2022-12-18T21:35:29.788Z,103459.58
2022-12-18T21:38:00.728Z,103463.95
2022-12-18T21:40:32.530Z,103460.55
2022-12-18T21:43:19.777Z,103462.43
2022-12-18T21:45:48.267Z,103469.05
2022-12-18T21:48:16.814Z,103469.40
2022-12-18T21:54:06.315Z,103478.68
2022-12-18T21:56:58.742Z,103480.20
2022-12-18T21:59:37.152Z,103470.67
2022-12-18T22:02:18.780Z,103484.14
2022-12-18T22:04:48.650Z,103489.49
2022-12-18T22:07:17.612Z,103483.65
2022-12-18T22:09:46.217Z,103490.60
2022-12-18T22:12:35.606Z,103490.52
2022-12-18T22:15:06.581Z,103492.06
2022-12-18T22:17:35.122Z,103491.05
2022-12-18T22:20:04.003Z,103493.64
2022-12-18T22:22:32.583Z,103498.02
2022-12-18T22:25:01.129Z,103499.27
2022-12-18T22:27:29.760Z,103503.02
2022-12-18T22:30:06.943Z,103501.98
2022-12-18T22:32:36.542Z,103497.14
2022-12-18T22:35:10.651Z,103498.27
2022-12-18T22:37:44.234Z,103497.28
2022-12-18T22:40:27.064Z,103496.05
2022-12-18T22:42:56.269Z,103492.26
2022-12-18T22:45:26.663Z,103494.63
2022-12-18T22:47:55.313Z,103497.31
2022-12-18T22:50:23.854Z,103497.27
2022-12-18T22:52:52.356Z,103507.30
2022-12-18T22:55:21.042Z,103505.52
2022-12-18T22:57:52.850Z,103512.47
2022-12-18T23:00:24.136Z,103515.84
2022-12-18T23:02:59.682Z,103520.31
2022-12-18T23:05:31.619Z,103511.99
2022-12-18T23:08:00.425Z,103514.38
2022-12-18T23:10:29.421Z,103518.41
2022-12-18T23:12:57.964Z,103518.73
2022-12-18T23:15:28.329Z,103520.17
2022-12-18T23:18:00.972Z,103521.98
2022-12-18T23:20:29.487Z,103526.65
2022-12-18T23:22:58.046Z,103529.27
2022-12-18T23:25:26.627Z,103528.19
2022-12-18T23:27:55.131Z,103532.16
2022-12-18T23:30:23.732Z,103538.38
2022-12-18T23:32:52.249Z,103538.23
2022-12-18T23:35:20.819Z,103545.20
2022-12-18T23:37:59.369Z,103547.70
2022-12-18T23:40:30.025Z,103544.20
2022-12-18T23:43:00.481Z,103538.11
2022-12-18T23:45:29.154Z,103550.10
2022-12-18T23:47:57.671Z,103555.75
2022-12-18T23:50:29.429Z,103555.34
2022-12-18T23:53:00.786Z,103562.28
2022-12-18T23:55:39.950Z,103562.64
2022-12-18T23:58:19.800Z,103568.18
